sensor_id;sensor_type;location;lat;lon;timestamp;P1;durP1;ratioP1;P2;durP2;ratioP2
40515;SDS011;26216;53.724;9.898;2023-03-01T00:01:05;5.68;;;3.65;;
40515;SDS011;26216;53.724;9.898;2023-03-01T00:03:52;5.72;;;3.38;;
40515;SDS011;26216;53.724;9.898;2023-03-01T00:06:37;5.53;;;3.10;;
40515;SDS011;26216;53.724;9.898;2023-03-01T00:09:21;4.47;;;3.05;;
40515;SDS011;26216;53.724;9.898;2023-03-01T00:12:06;5.93;;;3.33;;
40515;SDS011;26216;53.724;9.898;2023-03-01T00:14:51;5.25;;;3.10;;
40515;SDS011;26216;53.724;9.898;2023-03-01T00:17:35;4.85;;;2.90;;
40515;SDS011;26216;53.724;9.898;2023-03-01T00:20:19;5.13;;;3.10;;
40515;SDS011;26216;53.724;9.898;2023-03-01T00:23:04;4.32;;;2.97;;
40515;SDS011;26216;53.724;9.898;2023-03-01T00:25:49;5.35;;;3.45;;
40515;SDS011;26216;53.724;9.898;2023-03-01T00:28:33;4.82;;;3.30;;
40515;SDS011;26216;53.724;9.898;2023-03-01T00:31:19;4.28;;;2.70;;
40515;SDS011;26216;53.724;9.898;2023-03-01T00:34:05;5.75;;;3.55;;
40515;SDS011;26216;53.724;9.898;2023-03-01T00:36:50;4.63;;;3.13;;
40515;SDS011;26216;53.724;9.898;2023-03-01T00:39:34;5.93;;;2.97;;
40515;SDS011;26216;53.724;9.898;2023-03-01T00:42:18;4.93;;;3.08;;
40515;SDS011;26216;53.724;9.898;2023-03-01T00:45:03;7.00;;;3.47;;
40515;SDS011;26216;53.724;9.898;2023-03-01T00:47:48;5.90;;;3.42;;
40515;SDS011;26216;53.724;9.898;2023-03-01T00:50:32;5.25;;;3.00;;
40515;SDS011;26216;53.724;9.898;2023-03-01T00:53:17;5.05;;;3.30;;
40515;SDS011;26216;53.724;9.898;2023-03-01T00:55:42;5.07;;;3.38;;
40515;SDS011;26216;53.724;9.898;2023-03-01T00:58:08;7.07;;;3.67;;
40515;SDS011;26216;53.724;9.898;2023-03-01T01:00:34;5.60;;;3.20;;
40515;SDS011;26216;53.724;9.898;2023-03-01T01:03:00;5.75;;;3.47;;
40515;SDS011;26216;53.724;9.898;2023-03-01T01:05:25;5.90;;;3.53;;
40515;SDS011;26216;53.724;9.898;2023-03-01T01:07:51;5.43;;;3.15;;
40515;SDS011;26216;53.724;9.898;2023-03-01T01:10:17;4.65;;;3.15;;
40515;SDS011;26216;53.724;9.898;2023-03-01T01:12:44;5.10;;;3.28;;
40515;SDS011;26216;53.724;9.898;2023-03-01T01:15:10;6.25;;;3.88;;
40515;SDS011;26216;53.724;9.898;2023-03-01T01:17:39;5.28;;;3.30;;
40515;SDS011;26216;53.724;9.898;2023-03-01T01:20:05;5.35;;;3.75;;
40515;SDS011;26216;53.724;9.898;2023-03-01T01:22:35;5.60;;;3.60;;
40515;SDS011;26216;53.724;9.898;2023-03-01T01:25:00;6.35;;;3.35;;
40515;SDS011;26216;53.724;9.898;2023-03-01T01:27:26;4.90;;;3.20;;
40515;SDS011;26216;53.724;9.898;2023-03-01T01:29:55;4.75;;;3.00;;
40515;SDS011;26216;53.724;9.898;2023-03-01T01:32:22;6.05;;;3.40;;
40515;SDS011;26216;53.724;9.898;2023-03-01T01:34:48;5.78;;;3.50;;
40515;SDS011;26216;53.724;9.898;2023-03-01T01:37:14;4.20;;;2.80;;
40515;SDS011;26216;53.724;9.898;2023-03-01T01:39:39;4.85;;;3.17;;
40515;SDS011;26216;53.724;9.898;2023-03-01T01:42:05;5.00;;;3.42;;
40515;SDS011;26216;53.724;9.898;2023-03-01T01:44:32;4.63;;;3.00;;
40515;SDS011;26216;53.724;9.898;2023-03-01T01:49:41;4.40;;;3.10;;
40515;SDS011;26216;53.724;9.898;2023-03-01T01:52:20;4.45;;;3.22;;
40515;SDS011;26216;53.724;9.898;2023-03-01T01:55:12;5.10;;;3.28;;
40515;SDS011;26216;53.724;9.898;2023-03-01T01:57:48;4.95;;;3.25;;
40515;SDS011;26216;53.724;9.898;2023-03-01T02:00:21;4.70;;;3.08;;
40515;SDS011;26216;53.724;9.898;2023-03-01T02:02:49;5.63;;;3.17;;
40515;SDS011;26216;53.724;9.898;2023-03-01T02:05:29;4.90;;;2.88;;
40515;SDS011;26216;53.724;9.898;2023-03-01T02:08:13;4.57;;;2.88;;
40515;SDS011;26216;53.724;9.898;2023-03-01T02:10:43;5.43;;;3.22;;
40515;SDS011;26216;53.724;9.898;2023-03-01T02:13:10;4.20;;;2.88;;
40515;SDS011;26216;53.724;9.898;2023-03-01T02:15:37;4.45;;;3.10;;
40515;SDS011;26216;53.724;9.898;2023-03-01T02:18:04;4.38;;;2.92;;
40515;SDS011;26216;53.724;9.898;2023-03-01T02:20:35;4.60;;;2.97;;
40515;SDS011;26216;53.724;9.898;2023-03-01T02:23:23;5.78;;;3.67;;
40515;SDS011;26216;53.724;9.898;2023-03-01T02:26:01;6.28;;;3.60;;
40515;SDS011;26216;53.724;9.898;2023-03-01T02:28:36;5.03;;;3.20;;
40515;SDS011;26216;53.724;9.898;2023-03-01T02:31:06;4.85;;;2.92;;
40515;SDS011;26216;53.724;9.898;2023-03-01T02:33:52;5.07;;;3.25;;
40515;SDS011;26216;53.724;9.898;2023-03-01T02:36:21;5.25;;;3.20;;
40515;SDS011;26216;53.724;9.898;2023-03-01T02:38:51;4.43;;;3.20;;
40515;SDS011;26216;53.724;9.898;2023-03-01T02:41:21;4.57;;;2.88;;
40515;SDS011;26216;53.724;9.898;2023-03-01T02:43:48;4.55;;;3.05;;
40515;SDS011;26216;53.724;9.898;2023-03-01T02:46:18;4.82;;;3.03;;
40515;SDS011;26216;53.724;9.898;2023-03-01T02:48:52;4.15;;;3.15;;
40515;SDS011;26216;53.724;9.898;2023-03-01T02:51:28;4.63;;;2.97;;
40515;SDS011;26216;53.724;9.898;2023-03-01T02:56:41;4.72;;;3.17;;
40515;SDS011;26216;53.724;9.898;2023-03-01T02:59:08;5.20;;;3.55;;
40515;SDS011;26216;53.724;9.898;2023-03-01T03:01:35;3.90;;;2.80;;
40515;SDS011;26216;53.724;9.898;2023-03-01T03:04:04;5.40;;;2.90;;
40515;SDS011;26216;53.724;9.898;2023-03-01T03:06:43;5.00;;;2.80;;
40515;SDS011;26216;53.724;9.898;2023-03-01T03:09:10;4.32;;;2.95;;
40515;SDS011;26216;53.724;9.898;2023-03-01T03:11:36;6.15;;;2.95;;
40515;SDS011;26216;53.724;9.898;2023-03-01T03:14:04;4.90;;;2.85;;
40515;SDS011;26216;53.724;9.898;2023-03-01T03:16:30;6.88;;;3.08;;
40515;SDS011;26216;53.724;9.898;2023-03-01T03:18:56;5.65;;;3.25;;
40515;SDS011;26216;53.724;9.898;2023-03-01T03:21:31;5.07;;;2.88;;
40515;SDS011;26216;53.724;9.898;2023-03-01T03:23:58;5.10;;;3.13;;
40515;SDS011;26216;53.724;9.898;2023-03-01T03:26:23;4.80;;;3.17;;
40515;SDS011;26216;53.724;9.898;2023-03-01T03:28:49;4.20;;;2.80;;
40515;SDS011;26216;53.724;9.898;2023-03-01T03:31:15;4.68;;;2.90;;
40515;SDS011;26216;53.724;9.898;2023-03-01T03:33:41;4.85;;;2.95;;
40515;SDS011;26216;53.724;9.898;2023-03-01T03:36:07;5.68;;;3.33;;
40515;SDS011;26216;53.724;9.898;2023-03-01T03:38:38;4.80;;;2.73;;
40515;SDS011;26216;53.724;9.898;2023-03-01T03:41:05;5.95;;;2.90;;
40515;SDS011;26216;53.724;9.898;2023-03-01T03:43:34;6.57;;;3.22;;
40515;SDS011;26216;53.724;9.898;2023-03-01T03:46:01;5.45;;;3.00;;
40515;SDS011;26216;53.724;9.898;2023-03-01T03:48:34;5.68;;;3.28;;
40515;SDS011;26216;53.724;9.898;2023-03-01T03:51:10;5.28;;;2.97;;
40515;SDS011;26216;53.724;9.898;2023-03-01T03:53:38;5.80;;;2.95;;
40515;SDS011;26216;53.724;9.898;2023-03-01T03:56:04;5.20;;;3.50;;
40515;SDS011;26216;53.724;9.898;2023-03-01T03:58:30;4.97;;;3.22;;
40515;SDS011;26216;53.724;9.898;2023-03-01T04:00:56;4.95;;;3.30;;
40515;SDS011;26216;53.724;9.898;2023-03-01T04:03:22;7.38;;;3.05;;
40515;SDS011;26216;53.724;9.898;2023-03-01T04:05:50;4.80;;;2.92;;
40515;SDS011;26216;53.724;9.898;2023-03-01T04:08:19;4.75;;;3.35;;
40515;SDS011;26216;53.724;9.898;2023-03-01T04:10:47;4.97;;;3.13;;
40515;SDS011;26216;53.724;9.898;2023-03-01T04:13:16;6.22;;;3.40;;
40515;SDS011;26216;53.724;9.898;2023-03-01T04:15:45;5.90;;;3.30;;
40515;SDS011;26216;53.724;9.898;2023-03-01T04:18:13;4.10;;;2.85;;
40515;SDS011;26216;53.724;9.898;2023-03-01T04:20:40;5.85;;;3.30;;
40515;SDS011;26216;53.724;9.898;2023-03-01T04:23:08;4.40;;;2.97;;
40515;SDS011;26216;53.724;9.898;2023-03-01T04:28:37;4.15;;;2.83;;
40515;SDS011;26216;53.724;9.898;2023-03-01T04:31:12;4.93;;;2.90;;
40515;SDS011;26216;53.724;9.898;2023-03-01T04:33:59;5.68;;;3.35;;
40515;SDS011;26216;53.724;9.898;2023-03-01T04:36:26;5.65;;;3.53;;
40515;SDS011;26216;53.724;9.898;2023-03-01T04:38:53;5.18;;;3.42;;
40515;SDS011;26216;53.724;9.898;2023-03-01T04:41:21;4.57;;;3.00;;
40515;SDS011;26216;53.724;9.898;2023-03-01T04:43:48;4.43;;;3.15;;
40515;SDS011;26216;53.724;9.898;2023-03-01T04:46:16;5.05;;;2.97;;
40515;SDS011;26216;53.724;9.898;2023-03-01T04:48:44;4.43;;;3.03;;
40515;SDS011;26216;53.724;9.898;2023-03-01T04:51:10;4.72;;;3.22;;
40515;SDS011;26216;53.724;9.898;2023-03-01T04:53:40;5.63;;;3.20;;
40515;SDS011;26216;53.724;9.898;2023-03-01T04:56:06;5.97;;;3.13;;
40515;SDS011;26216;53.724;9.898;2023-03-01T04:58:32;4.90;;;3.00;;
40515;SDS011;26216;53.724;9.898;2023-03-01T05:00:58;5.05;;;3.15;;
40515;SDS011;26216;53.724;9.898;2023-03-01T05:03:24;5.18;;;3.15;;
40515;SDS011;26216;53.724;9.898;2023-03-01T05:05:50;4.80;;;3.08;;
40515;SDS011;26216;53.724;9.898;2023-03-01T05:08:17;4.38;;;3.00;;
40515;SDS011;26216;53.724;9.898;2023-03-01T05:10:44;4.18;;;2.95;;
40515;SDS011;26216;53.724;9.898;2023-03-01T05:13:12;5.78;;;3.30;;
40515;SDS011;26216;53.724;9.898;2023-03-01T05:15:40;4.82;;;2.90;;
40515;SDS011;26216;53.724;9.898;2023-03-01T05:18:06;4.45;;;2.88;;
40515;SDS011;26216;53.724;9.898;2023-03-01T05:20:36;5.22;;;3.20;;
40515;SDS011;26216;53.724;9.898;2023-03-01T05:23:03;4.00;;;2.90;;
40515;SDS011;26216;53.724;9.898;2023-03-01T05:25:30;4.97;;;3.33;;
40515;SDS011;26216;53.724;9.898;2023-03-01T05:28:00;5.03;;;3.35;;
40515;SDS011;26216;53.724;9.898;2023-03-01T05:30:30;5.07;;;3.05;;
40515;SDS011;26216;53.724;9.898;2023-03-01T05:32:57;4.65;;;3.00;;
40515;SDS011;26216;53.724;9.898;2023-03-01T05:35:24;4.68;;;2.78;;
40515;SDS011;26216;53.724;9.898;2023-03-01T05:37:51;4.68;;;3.47;;
40515;SDS011;26216;53.724;9.898;2023-03-01T05:40:18;5.43;;;3.42;;
40515;SDS011;26216;53.724;9.898;2023-03-01T05:42:46;4.80;;;2.95;;
40515;SDS011;26216;53.724;9.898;2023-03-01T05:45:17;5.60;;;3.20;;
40515;SDS011;26216;53.724;9.898;2023-03-01T05:47:44;5.50;;;3.70;;
40515;SDS011;26216;53.724;9.898;2023-03-01T05:50:15;4.95;;;3.25;;
40515;SDS011;26216;53.724;9.898;2023-03-01T05:52:44;5.00;;;3.20;;
40515;SDS011;26216;53.724;9.898;2023-03-01T05:57:44;5.53;;;3.25;;
40515;SDS011;26216;53.724;9.898;2023-03-01T06:00:11;4.82;;;3.05;;
40515;SDS011;26216;53.724;9.898;2023-03-01T06:02:39;6.47;;;3.80;;
40515;SDS011;26216;53.724;9.898;2023-03-01T06:05:05;5.18;;;3.38;;
40515;SDS011;26216;53.724;9.898;2023-03-01T06:07:32;5.57;;;3.20;;
40515;SDS011;26216;53.724;9.898;2023-03-01T06:09:58;5.25;;;3.28;;
40515;SDS011;26216;53.724;9.898;2023-03-01T06:12:24;4.90;;;3.38;;
40515;SDS011;26216;53.724;9.898;2023-03-01T06:14:50;4.85;;;3.17;;
40515;SDS011;26216;53.724;9.898;2023-03-01T06:17:15;7.25;;;3.40;;
40515;SDS011;26216;53.724;9.898;2023-03-01T06:19:41;4.78;;;3.17;;
40515;SDS011;26216;53.724;9.898;2023-03-01T06:22:07;5.40;;;3.58;;
40515;SDS011;26216;53.724;9.898;2023-03-01T06:24:33;4.35;;;3.17;;
40515;SDS011;26216;53.724;9.898;2023-03-01T06:26:59;5.07;;;3.30;;
40515;SDS011;26216;53.724;9.898;2023-03-01T06:29:25;5.45;;;3.20;;
40515;SDS011;26216;53.724;9.898;2023-03-01T06:31:51;5.13;;;2.92;;
40515;SDS011;26216;53.724;9.898;2023-03-01T06:34:17;4.85;;;3.28;;
40515;SDS011;26216;53.724;9.898;2023-03-01T06:36:43;5.03;;;3.47;;
40515;SDS011;26216;53.724;9.898;2023-03-01T06:39:08;5.93;;;3.85;;
40515;SDS011;26216;53.724;9.898;2023-03-01T06:41:34;5.93;;;3.80;;
40515;SDS011;26216;53.724;9.898;2023-03-01T06:44:00;5.93;;;3.67;;
40515;SDS011;26216;53.724;9.898;2023-03-01T06:46:27;5.28;;;3.50;;
40515;SDS011;26216;53.724;9.898;2023-03-01T06:48:53;4.38;;;3.30;;
40515;SDS011;26216;53.724;9.898;2023-03-01T06:51:19;5.22;;;3.22;;
40515;SDS011;26216;53.724;9.898;2023-03-01T06:53:45;4.53;;;3.08;;
40515;SDS011;26216;53.724;9.898;2023-03-01T06:56:11;5.80;;;3.15;;
40515;SDS011;26216;53.724;9.898;2023-03-01T06:58:37;5.22;;;3.40;;
40515;SDS011;26216;53.724;9.898;2023-03-01T07:01:07;4.88;;;3.47;;
40515;SDS011;26216;53.724;9.898;2023-03-01T07:03:33;5.90;;;3.42;;
40515;SDS011;26216;53.724;9.898;2023-03-01T07:05:59;5.88;;;3.88;;
40515;SDS011;26216;53.724;9.898;2023-03-01T07:08:25;6.53;;;3.70;;
40515;SDS011;26216;53.724;9.898;2023-03-01T07:10:57;6.85;;;4.22;;
40515;SDS011;26216;53.724;9.898;2023-03-01T07:13:26;8.45;;;5.45;;
40515;SDS011;26216;53.724;9.898;2023-03-01T07:15:53;8.07;;;5.97;;
40515;SDS011;26216;53.724;9.898;2023-03-01T07:18:18;7.45;;;5.25;;
40515;SDS011;26216;53.724;9.898;2023-03-01T07:20:44;6.93;;;5.03;;
40515;SDS011;26216;53.724;9.898;2023-03-01T07:23:10;8.48;;;5.35;;
40515;SDS011;26216;53.724;9.898;2023-03-01T07:25:36;7.30;;;5.50;;
40515;SDS011;26216;53.724;9.898;2023-03-01T07:28:02;10.65;;;7.07;;
40515;SDS011;26216;53.724;9.898;2023-03-01T07:30:28;8.57;;;5.63;;
40515;SDS011;26216;53.724;9.898;2023-03-01T07:32:54;8.73;;;6.55;;
40515;SDS011;26216;53.724;9.898;2023-03-01T07:35:21;10.25;;;6.65;;
40515;SDS011;26216;53.724;9.898;2023-03-01T07:37:47;9.85;;;6.60;;
40515;SDS011;26216;53.724;9.898;2023-03-01T07:40:13;9.18;;;6.43;;
40515;SDS011;26216;53.724;9.898;2023-03-01T07:42:39;8.85;;;6.25;;
40515;SDS011;26216;53.724;9.898;2023-03-01T07:45:05;10.30;;;6.93;;
40515;SDS011;26216;53.724;9.898;2023-03-01T07:47:31;9.52;;;7.15;;
40515;SDS011;26216;53.724;9.898;2023-03-01T07:49:57;10.43;;;7.13;;
40515;SDS011;26216;53.724;9.898;2023-03-01T07:52:23;11.80;;;7.00;;
40515;SDS011;26216;53.724;9.898;2023-03-01T07:54:49;10.85;;;7.65;;
40515;SDS011;26216;53.724;9.898;2023-03-01T07:57:16;12.60;;;8.32;;
40515;SDS011;26216;53.724;9.898;2023-03-01T07:59:42;16.00;;;10.13;;
40515;SDS011;26216;53.724;9.898;2023-03-01T08:02:08;15.98;;;10.70;;
40515;SDS011;26216;53.724;9.898;2023-03-01T08:04:34;15.63;;;10.07;;
40515;SDS011;26216;53.724;9.898;2023-03-01T08:07:00;15.32;;;10.15;;
40515;SDS011;26216;53.724;9.898;2023-03-01T08:09:26;13.55;;;8.75;;
40515;SDS011;26216;53.724;9.898;2023-03-01T08:11:52;13.43;;;9.02;;
40515;SDS011;26216;53.724;9.898;2023-03-01T08:14:19;13.25;;;8.43;;
40515;SDS011;26216;53.724;9.898;2023-03-01T08:16:45;15.27;;;10.25;;
40515;SDS011;26216;53.724;9.898;2023-03-01T08:19:13;13.02;;;9.05;;
40515;SDS011;26216;53.724;9.898;2023-03-01T08:21:39;16.13;;;9.90;;
40515;SDS011;26216;53.724;9.898;2023-03-01T08:24:05;11.68;;;8.15;;
40515;SDS011;26216;53.724;9.898;2023-03-01T08:26:32;11.35;;;8.25;;
40515;SDS011;26216;53.724;9.898;2023-03-01T08:28:59;16.70;;;10.88;;
40515;SDS011;26216;53.724;9.898;2023-03-01T08:31:26;11.98;;;8.65;;
40515;SDS011;26216;53.724;9.898;2023-03-01T08:34:04;11.30;;;7.22;;
40515;SDS011;26216;53.724;9.898;2023-03-01T08:36:36;12.88;;;8.70;;
40515;SDS011;26216;53.724;9.898;2023-03-01T08:39:07;15.60;;;9.70;;
40515;SDS011;26216;53.724;9.898;2023-03-01T08:41:34;16.75;;;9.50;;
40515;SDS011;26216;53.724;9.898;2023-03-01T08:44:00;13.15;;;8.75;;
40515;SDS011;26216;53.724;9.898;2023-03-01T08:46:27;14.50;;;9.48;;
40515;SDS011;26216;53.724;9.898;2023-03-01T08:48:54;12.57;;;7.72;;
40515;SDS011;26216;53.724;9.898;2023-03-01T08:51:21;14.82;;;8.35;;
40515;SDS011;26216;53.724;9.898;2023-03-01T08:53:48;13.25;;;8.95;;
40515;SDS011;26216;53.724;9.898;2023-03-01T08:56:14;12.02;;;8.00;;
40515;SDS011;26216;53.724;9.898;2023-03-01T08:58:43;13.77;;;8.60;;
40515;SDS011;26216;53.724;9.898;2023-03-01T09:01:11;13.80;;;8.27;;
40515;SDS011;26216;53.724;9.898;2023-03-01T09:03:38;13.90;;;8.70;;
40515;SDS011;26216;53.724;9.898;2023-03-01T09:06:05;12.23;;;7.93;;
40515;SDS011;26216;53.724;9.898;2023-03-01T09:08:39;11.30;;;7.80;;
40515;SDS011;26216;53.724;9.898;2023-03-01T09:11:07;9.75;;;5.85;;
40515;SDS011;26216;53.724;9.898;2023-03-01T09:13:35;10.57;;;6.05;;
40515;SDS011;26216;53.724;9.898;2023-03-01T09:16:02;10.20;;;6.50;;
40515;SDS011;26216;53.724;9.898;2023-03-01T09:18:29;13.60;;;7.30;;
40515;SDS011;26216;53.724;9.898;2023-03-01T09:21:04;10.63;;;6.43;;
40515;SDS011;26216;53.724;9.898;2023-03-01T09:23:35;11.95;;;6.63;;
40515;SDS011;26216;53.724;9.898;2023-03-01T09:28:34;9.27;;;6.43;;
40515;SDS011;26216;53.724;9.898;2023-03-01T09:31:01;13.55;;;6.85;;
40515;SDS011;26216;53.724;9.898;2023-03-01T09:33:28;8.45;;;6.15;;
40515;SDS011;26216;53.724;9.898;2023-03-01T09:35:59;8.88;;;5.40;;
40515;SDS011;26216;53.724;9.898;2023-03-01T09:38:30;10.65;;;6.55;;
40515;SDS011;26216;53.724;9.898;2023-03-01T09:40:55;8.57;;;6.03;;
40515;SDS011;26216;53.724;9.898;2023-03-01T09:43:24;7.32;;;5.40;;
40515;SDS011;26216;53.724;9.898;2023-03-01T09:45:58;12.55;;;6.38;;
40515;SDS011;26216;53.724;9.898;2023-03-01T09:48:28;13.13;;;6.88;;
40515;SDS011;26216;53.724;9.898;2023-03-01T09:51:01;9.48;;;5.85;;
40515;SDS011;26216;53.724;9.898;2023-03-01T09:53:34;9.77;;;6.55;;
40515;SDS011;26216;53.724;9.898;2023-03-01T09:56:12;12.02;;;6.85;;
40515;SDS011;26216;53.724;9.898;2023-03-01T10:01:29;10.73;;;6.43;;
40515;SDS011;26216;53.724;9.898;2023-03-01T10:04:04;10.93;;;6.63;;
40515;SDS011;26216;53.724;9.898;2023-03-01T10:06:31;12.75;;;6.63;;
40515;SDS011;26216;53.724;9.898;2023-03-01T10:09:00;11.40;;;7.10;;
40515;SDS011;26216;53.724;9.898;2023-03-01T10:11:48;11.43;;;6.18;;
40515;SDS011;26216;53.724;9.898;2023-03-01T10:14:27;10.23;;;6.30;;
40515;SDS011;26216;53.724;9.898;2023-03-01T10:17:04;11.43;;;6.40;;
40515;SDS011;26216;53.724;9.898;2023-03-01T10:19:45;11.85;;;6.65;;
40515;SDS011;26216;53.724;9.898;2023-03-01T10:22:30;9.07;;;5.60;;
40515;SDS011;26216;53.724;9.898;2023-03-01T10:24:58;9.93;;;5.97;;
40515;SDS011;26216;53.724;9.898;2023-03-01T10:27:38;8.27;;;6.05;;
40515;SDS011;26216;53.724;9.898;2023-03-01T10:30:17;8.85;;;5.88;;
40515;SDS011;26216;53.724;9.898;2023-03-01T10:32:54;10.30;;;5.75;;
40515;SDS011;26216;53.724;9.898;2023-03-01T10:35:26;10.48;;;7.45;;
40515;SDS011;26216;53.724;9.898;2023-03-01T10:38:04;10.00;;;6.65;;
40515;SDS011;26216;53.724;9.898;2023-03-01T10:43:14;9.40;;;6.75;;
40515;SDS011;26216;53.724;9.898;2023-03-01T10:45:40;10.57;;;7.07;;
40515;SDS011;26216;53.724;9.898;2023-03-01T10:48:12;10.13;;;7.25;;
40515;SDS011;26216;53.724;9.898;2023-03-01T10:50:49;9.60;;;6.53;;
40515;SDS011;26216;53.724;9.898;2023-03-01T10:56:05;11.80;;;7.82;;
40515;SDS011;26216;53.724;9.898;2023-03-01T10:58:39;11.32;;;7.53;;
40515;SDS011;26216;53.724;9.898;2023-03-01T11:03:40;9.98;;;6.82;;
40515;SDS011;26216;53.724;9.898;2023-03-01T11:08:41;10.13;;;6.88;;
40515;SDS011;26216;53.724;9.898;2023-03-01T11:11:25;11.10;;;5.95;;
40515;SDS011;26216;53.724;9.898;2023-03-01T11:14:04;10.93;;;7.65;;
40515;SDS011;26216;53.724;9.898;2023-03-01T11:16:41;10.48;;;6.40;;
40515;SDS011;26216;53.724;9.898;2023-03-01T11:21:36;12.15;;;7.53;;
40515;SDS011;26216;53.724;9.898;2023-03-01T11:24:16;8.90;;;5.47;;
40515;SDS011;26216;53.724;9.898;2023-03-01T11:26:50;9.93;;;6.70;;
40515;SDS011;26216;53.724;9.898;2023-03-01T11:29:41;10.82;;;7.13;;
40515;SDS011;26216;53.724;9.898;2023-03-01T11:32:08;10.57;;;5.88;;
40515;SDS011;26216;53.724;9.898;2023-03-01T11:34:47;10.02;;;6.25;;
40515;SDS011;26216;53.724;9.898;2023-03-01T11:39:51;11.27;;;6.75;;
40515;SDS011;26216;53.724;9.898;2023-03-01T11:45:13;11.85;;;6.97;;
40515;SDS011;26216;53.724;9.898;2023-03-01T11:48:13;8.55;;;5.88;;
40515;SDS011;26216;53.724;9.898;2023-03-01T11:55:54;7.85;;;5.38;;
40515;SDS011;26216;53.724;9.898;2023-03-01T11:58:34;7.38;;;5.38;;
40515;SDS011;26216;53.724;9.898;2023-03-01T12:01:29;7.35;;;5.00;;
40515;SDS011;26216;53.724;9.898;2023-03-01T12:04:23;7.68;;;5.05;;
40515;SDS011;26216;53.724;9.898;2023-03-01T12:10:34;9.68;;;6.22;;
40515;SDS011;26216;53.724;9.898;2023-03-01T12:16:07;9.43;;;6.22;;
40515;SDS011;26216;53.724;9.898;2023-03-01T12:19:00;7.65;;;4.78;;
40515;SDS011;26216;53.724;9.898;2023-03-01T12:24:24;7.35;;;4.80;;
40515;SDS011;26216;53.724;9.898;2023-03-01T12:27:01;6.88;;;4.80;;
40515;SDS011;26216;53.724;9.898;2023-03-01T12:35:16;7.90;;;5.82;;
40515;SDS011;26216;53.724;9.898;2023-03-01T12:38:25;6.90;;;4.70;;
40515;SDS011;26216;53.724;9.898;2023-03-01T12:47:26;7.32;;;5.32;;
40515;SDS011;26216;53.724;9.898;2023-03-01T12:50:14;6.15;;;4.28;;
40515;SDS011;26216;53.724;9.898;2023-03-01T12:52:49;9.23;;;6.50;;
40515;SDS011;26216;53.724;9.898;2023-03-01T13:06:14;9.55;;;6.80;;
40515;SDS011;26216;53.724;9.898;2023-03-01T13:11:23;9.32;;;6.63;;
40515;SDS011;26216;53.724;9.898;2023-03-01T13:13:49;8.52;;;6.18;;
40515;SDS011;26216;53.724;9.898;2023-03-01T13:21:54;9.35;;;6.70;;
40515;SDS011;26216;53.724;9.898;2023-03-01T13:29:55;10.75;;;7.45;;
40515;SDS011;26216;53.724;9.898;2023-03-01T13:32:31;9.20;;;6.78;;
40515;SDS011;26216;53.724;9.898;2023-03-01T13:35:03;10.63;;;8.00;;
40515;SDS011;26216;53.724;9.898;2023-03-01T13:37:40;11.68;;;7.53;;
40515;SDS011;26216;53.724;9.898;2023-03-01T13:42:44;9.85;;;6.80;;
40515;SDS011;26216;53.724;9.898;2023-03-01T13:48:18;10.70;;;6.47;;
40515;SDS011;26216;53.724;9.898;2023-03-01T13:50:50;11.85;;;7.50;;
40515;SDS011;26216;53.724;9.898;2023-03-01T13:53:24;10.85;;;6.90;;
40515;SDS011;26216;53.724;9.898;2023-03-01T13:56:00;13.80;;;9.05;;
40515;SDS011;26216;53.724;9.898;2023-03-01T13:58:33;10.60;;;7.22;;
40515;SDS011;26216;53.724;9.898;2023-03-01T14:01:30;11.82;;;8.93;;
40515;SDS011;26216;53.724;9.898;2023-03-01T14:03:59;13.80;;;9.45;;
40515;SDS011;26216;53.724;9.898;2023-03-01T14:06:28;13.35;;;8.90;;
40515;SDS011;26216;53.724;9.898;2023-03-01T14:16:48;14.65;;;9.15;;
40515;SDS011;26216;53.724;9.898;2023-03-01T14:19:24;14.25;;;8.90;;
40515;SDS011;26216;53.724;9.898;2023-03-01T14:22:03;14.18;;;9.15;;
40515;SDS011;26216;53.724;9.898;2023-03-01T14:24:38;13.50;;;9.35;;
40515;SDS011;26216;53.724;9.898;2023-03-01T14:27:11;10.70;;;7.47;;
40515;SDS011;26216;53.724;9.898;2023-03-01T14:29:38;17.00;;;11.32;;
40515;SDS011;26216;53.724;9.898;2023-03-01T14:32:12;13.93;;;9.65;;
40515;SDS011;26216;53.724;9.898;2023-03-01T14:34:45;15.70;;;9.30;;
40515;SDS011;26216;53.724;9.898;2023-03-01T14:39:59;12.50;;;8.75;;
40515;SDS011;26216;53.724;9.898;2023-03-01T14:42:28;9.85;;;6.68;;
40515;SDS011;26216;53.724;9.898;2023-03-01T14:44:59;10.68;;;7.40;;
40515;SDS011;26216;53.724;9.898;2023-03-01T14:47:28;10.38;;;7.60;;
40515;SDS011;26216;53.724;9.898;2023-03-01T14:52:54;6.35;;;4.43;;
40515;SDS011;26216;53.724;9.898;2023-03-01T14:55:27;6.97;;;4.68;;
40515;SDS011;26216;53.724;9.898;2023-03-01T14:57:57;5.78;;;3.70;;
40515;SDS011;26216;53.724;9.898;2023-03-01T15:00:27;6.45;;;4.70;;
40515;SDS011;26216;53.724;9.898;2023-03-01T15:02:55;8.00;;;5.35;;
40515;SDS011;26216;53.724;9.898;2023-03-01T15:05:27;6.85;;;4.95;;
40515;SDS011;26216;53.724;9.898;2023-03-01T15:07:59;6.95;;;4.78;;
40515;SDS011;26216;53.724;9.898;2023-03-01T15:10:28;5.75;;;4.30;;
40515;SDS011;26216;53.724;9.898;2023-03-01T15:13:42;6.72;;;4.15;;
40515;SDS011;26216;53.724;9.898;2023-03-01T15:15:48;6.00;;;4.68;;
40515;SDS011;26216;53.724;9.898;2023-03-01T15:18:17;5.88;;;4.38;;
40515;SDS011;26216;53.724;9.898;2023-03-01T15:20:46;5.85;;;4.35;;
40515;SDS011;26216;53.724;9.898;2023-03-01T15:23:21;6.32;;;4.53;;
40515;SDS011;26216;53.724;9.898;2023-03-01T15:25:48;6.25;;;4.32;;
40515;SDS011;26216;53.724;9.898;2023-03-01T15:28:22;7.20;;;5.00;;
40515;SDS011;26216;53.724;9.898;2023-03-01T15:31:00;5.18;;;3.80;;
40515;SDS011;26216;53.724;9.898;2023-03-01T15:33:48;6.57;;;4.35;;
40515;SDS011;26216;53.724;9.898;2023-03-01T15:38:59;6.22;;;4.90;;
40515;SDS011;26216;53.724;9.898;2023-03-01T15:43:56;6.80;;;5.57;;
40515;SDS011;26216;53.724;9.898;2023-03-01T15:46:27;6.55;;;4.63;;
40515;SDS011;26216;53.724;9.898;2023-03-01T15:48:57;5.30;;;4.15;;
40515;SDS011;26216;53.724;9.898;2023-03-01T15:54:06;5.65;;;4.43;;
40515;SDS011;26216;53.724;9.898;2023-03-01T15:56:41;5.65;;;4.50;;
40515;SDS011;26216;53.724;9.898;2023-03-01T15:59:09;5.57;;;4.10;;
40515;SDS011;26216;53.724;9.898;2023-03-01T16:01:38;6.22;;;5.10;;
40515;SDS011;26216;53.724;9.898;2023-03-01T16:04:05;5.93;;;4.60;;
40515;SDS011;26216;53.724;9.898;2023-03-01T16:06:31;5.88;;;4.45;;
40515;SDS011;26216;53.724;9.898;2023-03-01T16:08:57;5.85;;;4.03;;
40515;SDS011;26216;53.724;9.898;2023-03-01T16:11:23;5.35;;;4.05;;
40515;SDS011;26216;53.724;9.898;2023-03-01T16:13:49;5.03;;;3.88;;
40515;SDS011;26216;53.724;9.898;2023-03-01T16:16:18;5.30;;;3.28;;
40515;SDS011;26216;53.724;9.898;2023-03-01T16:18:45;6.70;;;4.47;;
40515;SDS011;26216;53.724;9.898;2023-03-01T16:21:22;6.07;;;4.25;;
40515;SDS011;26216;53.724;9.898;2023-03-01T16:23:49;4.45;;;3.70;;
40515;SDS011;26216;53.724;9.898;2023-03-01T16:26:16;5.40;;;3.92;;
40515;SDS011;26216;53.724;9.898;2023-03-01T16:28:43;5.25;;;3.38;;
40515;SDS011;26216;53.724;9.898;2023-03-01T16:31:10;5.38;;;3.65;;
40515;SDS011;26216;53.724;9.898;2023-03-01T16:33:37;5.40;;;3.88;;
40515;SDS011;26216;53.724;9.898;2023-03-01T16:36:07;4.75;;;3.35;;
40515;SDS011;26216;53.724;9.898;2023-03-01T16:38:34;5.10;;;3.42;;
40515;SDS011;26216;53.724;9.898;2023-03-01T16:41:00;4.78;;;3.42;;
40515;SDS011;26216;53.724;9.898;2023-03-01T16:43:26;4.72;;;3.75;;
40515;SDS011;26216;53.724;9.898;2023-03-01T16:45:52;4.53;;;3.20;;
40515;SDS011;26216;53.724;9.898;2023-03-01T16:48:21;4.05;;;3.15;;
40515;SDS011;26216;53.724;9.898;2023-03-01T16:50:58;5.45;;;4.10;;
40515;SDS011;26216;53.724;9.898;2023-03-01T16:53:26;4.97;;;3.70;;
40515;SDS011;26216;53.724;9.898;2023-03-01T16:55:54;4.70;;;3.47;;
40515;SDS011;26216;53.724;9.898;2023-03-01T16:58:21;4.57;;;3.60;;